Time;durP1;ratioP1;P1;durP2;ratioP2;P2;SDS_P1;SDS_P2;PMS_P1;PMS_P2;Temp;Humidity;BMP_temperature;BMP_pressure;BME280_temperature;BME280_humidity;BME280_pressure;Samples;Min_cycle;Max_cycle;Signal;HPM_P1;HPM_P2
2023/12/13 00:01:46;;;;;;;10.05;5.53;;;-7.00;99.90;;;;;;4963084;28;20035;-81
2023/12/13 00:04:12;;;;;;;11.57;3.90;;;-7.10;99.90;;;;;;4954597;28;20105;-83
2023/12/13 00:06:38;;;;;;;14.48;3.83;;;-7.10;99.90;;;;;;4958079;28;20393;-81
2023/12/13 00:09:08;;;;;;;10.98;3.95;;;-7.10;99.90;;;;;;4959542;28;20031;-82
2023/12/13 00:11:34;;;;;;;10.85;3.97;;;-7.10;99.90;;;;;;4956109;28;20465;-83
2023/12/13 00:14:00;;;;;;;16.10;7.95;;;-7.10;99.90;;;;;;4956912;28;20020;-83
2023/12/13 00:16:25;;;;;;;12.60;4.05;;;-7.10;99.90;;;;;;4956571;28;20046;-82
2023/12/13 00:18:51;;;;;;;13.80;3.95;;;-7.10;99.90;;;;;;4963252;28;20019;-81
2023/12/13 00:21:17;;;;;;;14.20;3.50;;;-7.00;99.90;;;;;;4959514;28;20104;-82
2023/12/13 00:23:45;;;;;;;5.80;3.47;;;-7.00;99.90;;;;;;4957150;28;20548;-83
2023/12/13 00:26:16;;;;;;;11.38;5.22;;;-7.00;99.90;;;;;;4957176;29;20026;-82
2023/12/13 00:28:42;;;;;;;16.08;3.63;;;-7.00;99.90;;;;;;4959039;29;20055;-80
2023/12/13 00:31:09;;;;;;;15.60;4.68;;;-7.00;99.90;;;;;;4958887;29;20047;-81
2023/12/13 00:33:35;;;;;;;15.20;3.70;;;-7.00;99.90;;;;;;4941775;28;20050;-82
2023/12/13 00:36:01;;;;;;;16.45;3.30;;;-7.00;99.90;;;;;;4957942;29;20114;-82
2023/12/13 00:38:26;;;;;;;16.70;3.70;;;-7.00;99.90;;;;;;4966351;28;20042;-83
2023/12/13 00:40:52;;;;;;;14.85;3.13;;;-7.00;99.90;;;;;;4970835;28;20038;-83
2023/12/13 00:43:18;;;;;;;6.95;4.72;;;-7.00;99.90;;;;;;4971473;28;20035;-82
2023/12/13 00:45:44;;;;;;;10.40;3.67;;;-7.10;99.90;;;;;;4966548;28;20023;-82
2023/12/13 00:48:10;;;;;;;5.72;2.75;;;-7.00;99.90;;;;;;4962032;28;20102;-82
2023/12/13 00:50:36;;;;;;;9.43;4.03;;;-7.00;99.90;;;;;;4956780;29;20453;-82
2023/12/13 00:53:02;;;;;;;5.88;3.65;;;-7.00;99.90;;;;;;4957209;28;20172;-83
2023/12/13 00:55:28;;;;;;;8.23;3.42;;;-7.00;99.90;;;;;;4965584;28;20019;-82
2023/12/13 00:57:54;;;;;;;17.67;4.68;;;-7.00;99.90;;;;;;4962554;28;20027;-81
2023/12/13 01:00:20;;;;;;;11.15;3.60;;;-7.00;99.90;;;;;;4958364;28;20067;-83
2023/12/13 01:02:46;;;;;;;15.57;3.25;;;-7.00;99.90;;;;;;4960083;28;20118;-82
2023/12/13 01:05:12;;;;;;;5.80;2.33;;;-7.00;99.90;;;;;;4961585;28;20102;-81
2023/12/13 01:07:37;;;;;;;10.93;4.22;;;-7.00;99.90;;;;;;4964044;28;20026;-82
2023/12/13 01:10:04;;;;;;;13.95;4.50;;;-7.00;99.90;;;;;;4960148;28;20042;-81
2023/12/13 01:12:30;;;;;;;8.55;4.53;;;-7.00;99.90;;;;;;4959002;28;20098;-82
2023/12/13 01:14:56;;;;;;;14.18;3.95;;;-7.00;99.90;;;;;;4956486;29;20171;-80
2023/12/13 01:17:22;;;;;;;8.57;4.03;;;-7.10;99.90;;;;;;4966848;28;20027;-82
2023/12/13 01:19:49;;;;;;;8.95;4.07;;;-7.10;99.90;;;;;;4956637;28;20023;-81
2023/12/13 01:22:14;;;;;;;12.85;4.43;;;-7.20;99.90;;;;;;4965422;28;20023;-82
2023/12/13 01:24:40;;;;;;;7.53;4.30;;;-7.20;99.90;;;;;;4965589;28;20031;-82
2023/12/13 01:27:06;;;;;;;11.32;4.22;;;-7.20;99.90;;;;;;4949266;28;20039;-80
2023/12/13 01:29:32;;;;;;;11.20;4.40;;;-7.20;99.90;;;;;;4937923;29;20023;-82
2023/12/13 01:31:58;;;;;;;11.70;6.68;;;-7.20;99.90;;;;;;4958739;28;20019;-82
2023/12/13 01:34:24;;;;;;;12.90;3.70;;;-7.20;99.90;;;;;;4948151;28;20023;-82
2023/12/13 01:36:49;;;;;;;12.50;4.18;;;-7.20;99.90;;;;;;4961243;28;20027;-82
2023/12/13 01:39:16;;;;;;;8.77;4.68;;;-7.20;99.90;;;;;;4960769;28;20023;-81
2023/12/13 01:41:43;;;;;;;15.52;5.53;;;-7.20;99.90;;;;;;4974679;28;20034;-81
2023/12/13 01:44:09;;;;;;;9.40;3.85;;;-7.10;99.90;;;;;;4966621;29;20019;-83
2023/12/13 01:46:36;;;;;;;20.17;6.15;;;-7.20;99.90;;;;;;4965366;28;20031;-82
2023/12/13 01:49:05;;;;;;;11.55;4.88;;;-7.20;99.90;;;;;;4961141;29;20151;-82
2023/12/13 01:51:32;;;;;;;5.75;3.08;;;-7.20;99.90;;;;;;4956106;29;20098;-80
2023/12/13 01:53:59;;;;;;;4.57;2.92;;;-7.20;99.90;;;;;;4955968;29;20023;-81
2023/12/13 01:56:25;;;;;;;18.35;4.35;;;-7.20;99.90;;;;;;4952669;28;20035;-80
2023/12/13 01:58:51;;;;;;;16.17;5.65;;;-7.20;99.90;;;;;;4963270;28;20023;-82
2023/12/13 02:01:17;;;;;;;10.02;4.63;;;-7.20;99.90;;;;;;4938979;29;20388;-82
2023/12/13 02:03:43;;;;;;;9.38;3.97;;;-7.20;99.90;;;;;;4961358;28;20043;-80
2023/12/13 02:06:09;;;;;;;9.32;4.40;;;-7.20;99.90;;;;;;4967059;28;20022;-81
2023/12/13 02:08:35;;;;;;;12.63;5.60;;;-7.20;99.90;;;;;;4964789;28;20027;-81
2023/12/13 02:11:01;;;;;;;16.63;5.25;;;-7.20;99.90;;;;;;4960604;28;20030;-80
2023/12/13 02:13:26;;;;;;;12.57;3.83;;;-7.20;99.90;;;;;;4967442;28;20055;-79
2023/12/13 02:15:52;;;;;;;12.43;4.07;;;-7.30;99.90;;;;;;4958333;29;20473;-82
2023/12/13 02:18:18;;;;;;;8.23;4.68;;;-7.30;99.90;;;;;;4925983;29;20481;-81
2023/12/13 02:20:44;;;;;;;7.57;3.63;;;-7.30;99.90;;;;;;4940015;29;20026;-81
2023/12/13 02:23:10;;;;;;;8.73;3.45;;;-7.30;99.90;;;;;;4956973;28;20106;-81
2023/12/13 02:25:57;;;;;;;8.38;3.90;;;-7.30;99.90;;;;;;4959224;28;20034;-80
2023/12/13 02:28:27;;;;;;;9.52;3.47;;;-7.20;99.90;;;;;;4955632;28;20090;-80
2023/12/13 02:30:55;;;;;;;10.18;3.30;;;-7.30;99.90;;;;;;4958370;28;20042;-81
2023/12/13 02:33:25;;;;;;;15.32;4.10;;;-7.30;99.90;;;;;;4957995;28;20042;-81
2023/12/13 02:35:52;;;;;;;11.02;4.45;;;-7.30;99.90;;;;;;4959752;28;20560;-82
2023/12/13 02:38:18;;;;;;;3.70;2.55;;;-7.30;99.80;;;;;;4957999;28;20457;-81
2023/12/13 02:40:44;;;;;;;12.15;3.40;;;-7.30;99.80;;;;;;4960617;28;20098;-81
2023/12/13 02:43:10;;;;;;;14.82;3.25;;;-7.40;99.80;;;;;;4957087;28;20023;-81
2023/12/13 02:45:36;;;;;;;12.23;3.15;;;-7.40;99.80;;;;;;4962701;28;20399;-82
2023/12/13 02:48:01;;;;;;;10.27;3.25;;;-7.40;99.90;;;;;;4954477;28;20365;-81
2023/12/13 02:50:27;;;;;;;6.18;3.00;;;-7.40;99.90;;;;;;4956519;28;20027;-79
2023/12/13 02:52:53;;;;;;;12.27;5.90;;;-7.40;99.90;;;;;;4954721;28;20123;-81
2023/12/13 02:55:19;;;;;;;13.77;3.95;;;-7.40;99.90;;;;;;4957646;29;20031;-81
2023/12/13 02:57:45;;;;;;;12.25;4.00;;;-7.50;99.90;;;;;;4958714;28;20027;-81
2023/12/13 03:00:12;;;;;;;9.73;5.05;;;-7.50;99.90;;;;;;4941054;29;20033;-80
2023/12/13 03:02:42;;;;;;;24.88;6.85;;;-7.60;99.90;;;;;;4955319;28;20468;-81
2023/12/13 03:05:08;;;;;;;15.93;3.70;;;-7.60;99.90;;;;;;4955903;28;20042;-81
2023/12/13 03:07:34;;;;;;;11.20;3.80;;;-7.60;99.90;;;;;;4956089;28;20026;-81
2023/12/13 03:09:59;;;;;;;8.25;2.80;;;-7.60;99.90;;;;;;4955095;28;20404;-80
2023/12/13 03:12:25;;;;;;;11.02;3.47;;;-7.60;99.90;;;;;;4958030;28;20477;-80
2023/12/13 03:14:51;;;;;;;11.25;3.65;;;-7.60;99.90;;;;;;4951304;28;20085;-80
2023/12/13 03:17:17;;;;;;;17.25;4.47;;;-7.70;99.90;;;;;;4955925;28;20503;-81
2023/12/13 03:19:43;;;;;;;9.18;2.78;;;-7.70;99.90;;;;;;4953951;29;20477;-80
2023/12/13 03:22:08;;;;;;;5.93;3.47;;;-7.70;99.90;;;;;;4949454;28;20027;-81
2023/12/13 03:24:37;;;;;;;5.97;4.85;;;-7.70;99.90;;;;;;4958767;28;20023;-81
2023/12/13 03:27:04;;;;;;;8.85;3.63;;;-7.70;99.90;;;;;;4961415;28;20030;-80
2023/12/13 03:29:29;;;;;;;7.78;3.65;;;-7.80;99.90;;;;;;4952828;28;20055;-79
2023/12/13 03:31:55;;;;;;;5.93;2.53;;;-7.80;99.90;;;;;;4960344;28;20027;-79
2023/12/13 03:34:21;;;;;;;6.32;3.33;;;-7.80;99.90;;;;;;4945210;28;20037;-81
2023/12/13 03:36:47;;;;;;;13.25;3.33;;;-7.80;99.90;;;;;;4959412;28;20078;-80
2023/12/13 03:39:13;;;;;;;12.52;3.65;;;-7.80;99.90;;;;;;4962650;28;20020;-81
2023/12/13 03:41:39;;;;;;;7.30;3.78;;;-7.80;99.90;;;;;;4971563;28;20554;-81
2023/12/13 03:44:05;;;;;;;17.35;3.38;;;-7.80;99.90;;;;;;4971910;28;20020;-80
2023/12/13 03:46:31;;;;;;;12.43;2.58;;;-7.80;99.90;;;;;;4955918;28;20114;-81
2023/12/13 03:48:56;;;;;;;14.82;3.17;;;-7.90;99.90;;;;;;4953710;29;20377;-79
2023/12/13 03:51:23;;;;;;;7.88;3.22;;;-7.90;99.90;;;;;;4952285;28;20500;-80
2023/12/13 03:53:49;;;;;;;8.60;3.10;;;-7.90;99.90;;;;;;4955501;28;20091;-81
2023/12/13 03:56:16;;;;;;;;;;;-8.00;99.90;;;;;;4957531;28;20496;-81
2023/12/13 03:58:42;;;;;;;8.63;3.57;;;-8.00;99.90;;;;;;4958533;28;19913;-79
2023/12/13 04:01:08;;;;;;;11.68;4.18;;;-8.10;99.90;;;;;;4956356;28;20106;-80
2023/12/13 04:03:34;;;;;;;7.93;3.83;;;-8.10;99.90;;;;;;4951527;28;20080;-81
2023/12/13 04:06:01;;;;;;;11.23;3.00;;;-8.20;99.90;;;;;;4938650;29;20446;-80
2023/12/13 04:08:27;;;;;;;12.02;4.45;;;-8.20;99.90;;;;;;4938777;28;20020;-80
2023/12/13 04:10:53;;;;;;;8.05;3.15;;;-8.20;99.90;;;;;;4942449;29;20351;-80
2023/12/13 04:13:19;;;;;;;16.00;3.85;;;-8.20;99.90;;;;;;4939359;28;20015;-80
2023/12/13 04:15:45;;;;;;;11.65;3.70;;;-8.20;99.90;;;;;;4943767;29;20027;-80
2023/12/13 04:18:11;;;;;;;11.10;2.90;;;-8.30;99.90;;;;;;4941972;28;20020;-80
2023/12/13 04:20:37;;;;;;;7.33;3.33;;;-8.30;99.90;;;;;;4944929;29;20032;-81
2023/12/13 04:23:03;;;;;;;10.35;3.53;;;-8.30;99.90;;;;;;4941959;29;20496;-80
2023/12/13 04:25:29;;;;;;;6.32;4.45;;;-8.30;99.90;;;;;;4941168;29;20558;-80
2023/12/13 04:27:55;;;;;;;10.88;4.57;;;-8.30;99.90;;;;;;4955384;28;20028;-79
2023/12/13 04:30:21;;;;;;;12.23;4.18;;;-8.30;99.80;;;;;;4939489;28;20035;-82
2023/12/13 04:32:47;;;;;;;9.75;4.72;;;-8.20;99.80;;;;;;4956216;28;20027;-80
2023/12/13 04:35:13;;;;;;;7.68;3.83;;;-8.20;99.80;;;;;;4956370;28;20433;-80
2023/12/13 04:37:39;;;;;;;13.30;3.22;;;-8.20;99.70;;;;;;4949352;28;20031;-82
2023/12/13 04:40:06;;;;;;;9.00;3.17;;;-8.20;99.70;;;;;;4938451;29;20449;-80
2023/12/13 04:42:32;;;;;;;;;;;-8.20;99.90;;;;;;4939157;28;20032;-81
2023/12/13 04:44:58;;;;;;;11.40;4.10;;;-8.20;99.60;;;;;;4936150;29;19907;-83
2023/12/13 04:47:24;;;;;;;5.53;2.65;;;-8.20;99.70;;;;;;4938951;29;20026;-82
2023/12/13 04:49:50;;;;;;;12.10;3.97;;;-8.30;99.90;;;;;;4936508;29;20031;-81
2023/12/13 04:52:16;;;;;;;8.70;3.92;;;-8.30;99.90;;;;;;4952966;28;20511;-81
2023/12/13 04:54:42;;;;;;;13.50;4.20;;;-8.40;99.90;;;;;;4940314;29;20067;-81
2023/12/13 04:57:08;;;;;;;14.25;4.25;;;-8.40;99.90;;;;;;4935388;29;20134;-79
2023/12/13 04:59:34;;;;;;;20.92;5.28;;;-8.40;99.90;;;;;;4940583;29;20042;-82
2023/12/13 05:02:00;;;;;;;15.05;4.05;;;-8.40;99.90;;;;;;4945311;29;20511;-83
2023/12/13 05:04:26;;;;;;;20.27;4.70;;;-8.40;99.90;;;;;;4961384;28;20047;-83
2023/12/13 05:06:51;;;;;;;8.95;4.30;;;-8.40;99.90;;;;;;4960555;28;20054;-81
2023/12/13 05:09:17;;;;;;;11.07;4.38;;;-8.50;99.90;;;;;;4961941;28;20046;-83
2023/12/13 05:11:43;;;;;;;8.75;4.00;;;-8.40;99.90;;;;;;4945247;29;20031;-80
2023/12/13 05:14:09;;;;;;;14.00;5.05;;;-8.50;99.90;;;;;;4961424;28;20019;-83
2023/12/13 05:16:37;;;;;;;12.15;4.20;;;-8.50;99.90;;;;;;4966685;28;20033;-82
2023/12/13 05:19:03;;;;;;;9.82;4.18;;;-8.50;99.90;;;;;;4959979;28;20034;-84
2023/12/13 05:21:29;;;;;;;10.15;3.60;;;-8.50;99.90;;;;;;4968947;28;20476;-81
2023/12/13 05:23:55;;;;;;;8.68;3.53;;;-8.50;99.90;;;;;;4965314;28;20026;-82
2023/12/13 05:26:21;;;;;;;12.20;3.08;;;-8.50;99.90;;;;;;4973915;28;20034;-82
2023/12/13 05:28:47;;;;;;;7.20;5.07;;;-8.50;99.90;;;;;;4965874;28;20028;-83
2023/12/13 05:31:22;;;;;;;6.32;3.30;;;-8.50;99.90;;;;;;4962200;28;20098;-82
2023/12/13 05:33:48;;;;;;;6.28;3.05;;;-8.50;99.90;;;;;;4954927;28;20058;-82
2023/12/13 05:36:15;;;;;;;10.65;2.60;;;-8.50;99.90;;;;;;4957563;28;20082;-80
2023/12/13 05:38:42;;;;;;;10.82;3.10;;;-8.40;99.90;;;;;;4958337;28;20031;-84
2023/12/13 05:41:08;;;;;;;13.52;4.30;;;-8.40;99.90;;;;;;4940221;29;20031;-83
2023/12/13 05:43:35;;;;;;;9.70;5.10;;;-8.40;99.90;;;;;;4953811;29;20027;-80
2023/12/13 05:46:02;;;;;;;12.63;5.78;;;-8.40;99.90;;;;;;4961978;28;20131;-81
2023/12/13 05:48:28;;;;;;;7.30;2.38;;;-8.40;99.90;;;;;;4955183;28;20059;-80
2023/12/13 05:50:53;;;;;;;13.73;4.80;;;-8.40;99.90;;;;;;4958469;28;20070;-81
2023/12/13 05:53:19;;;;;;;9.00;2.58;;;-8.40;99.90;;;;;;4957380;28;20094;-84
2023/12/13 05:55:45;;;;;;;9.93;3.35;;;-8.40;99.90;;;;;;4942509;28;20027;-83
2023/12/13 05:58:11;;;;;;;13.68;3.67;;;-8.40;99.90;;;;;;4964204;28;20366;-83
2023/12/13 06:00:37;;;;;;;13.55;3.35;;;-8.50;99.90;;;;;;4958620;28;20027;-82
2023/12/13 06:03:03;;;;;;;14.57;3.55;;;-8.40;99.90;;;;;;4956508;28;20039;-84
2023/12/13 06:05:29;;;;;;;22.00;3.72;;;-8.50;99.90;;;;;;4962766;29;20058;-83
2023/12/13 06:07:55;;;;;;;11.88;3.53;;;-8.50;99.90;;;;;;4955919;28;20113;-83
2023/12/13 06:10:20;;;;;;;4.65;3.05;;;-8.50;99.90;;;;;;4952862;28;20027;-81
2023/12/13 06:12:50;;;;;;;12.75;3.15;;;-8.50;99.90;;;;;;4954812;28;20037;-84
2023/12/13 06:15:16;;;;;;;12.50;3.13;;;-8.50;99.90;;;;;;4953778;28;20027;-83
2023/12/13 06:17:42;;;;;;;20.13;3.92;;;-8.50;99.90;;;;;;4954743;28;20075;-82
2023/12/13 06:20:08;;;;;;;10.07;3.97;;;-8.50;99.90;;;;;;4955242;28;20068;-83
2023/12/13 06:22:34;;;;;;;8.10;2.88;;;-8.50;99.90;;;;;;4955224;28;20457;-81
2023/12/13 06:25:00;;;;;;;11.93;3.17;;;-8.50;99.90;;;;;;4954889;28;20019;-81
2023/12/13 06:27:26;;;;;;;14.48;3.15;;;-8.50;99.90;;;;;;4953731;28;20035;-80
2023/12/13 06:29:52;;;;;;;11.75;2.80;;;-8.60;99.90;;;;;;4955286;28;20122;-81
2023/12/13 06:32:17;;;;;;;10.38;3.55;;;-8.60;99.90;;;;;;4956188;28;20449;-81
2023/12/13 06:34:43;;;;;;;10.70;4.15;;;-8.60;99.90;;;;;;4937804;29;20027;-81
2023/12/13 06:37:09;;;;;;;14.10;3.72;;;-8.60;99.90;;;;;;4961485;28;20020;-82
2023/12/13 06:39:35;;;;;;;16.55;4.35;;;-8.60;99.90;;;;;;4960480;28;20027;-84
2023/12/13 06:42:01;;;;;;;12.70;3.92;;;-8.60;99.90;;;;;;4948758;28;20027;-84
2023/12/13 06:44:27;;;;;;;17.75;3.90;;;-8.60;99.90;;;;;;4955232;28;20034;-83
2023/12/13 06:46:53;;;;;;;12.02;3.50;;;-8.60;99.90;;;;;;4957020;29;20168;-83
2023/12/13 06:49:22;;;;;;;13.02;3.50;;;-8.60;99.90;;;;;;4955390;29;20031;-82
2023/12/13 06:51:50;;;;;;;9.13;2.78;;;-8.60;99.90;;;;;;4955840;29;20039;-83
2023/12/13 06:54:16;;;;;;;8.55;3.53;;;-8.60;99.90;;;;;;4956309;29;20063;-84
2023/12/13 06:56:51;;;;;;;18.88;5.13;;;-8.60;99.90;;;;;;4957344;28;20078;-84
2023/12/13 06:59:17;;;;;;;10.60;3.92;;;-8.60;99.90;;;;;;4954411;28;20020;-83
2023/12/13 07:01:43;;;;;;;5.15;3.65;;;-8.60;99.90;;;;;;4941129;28;20057;-83
2023/12/13 07:04:09;;;;;;;19.70;3.22;;;-8.60;99.90;;;;;;4937281;29;20112;-82
2023/12/13 07:06:35;;;;;;;13.77;3.25;;;-8.60;99.90;;;;;;4938828;29;20051;-84
2023/12/13 07:09:02;;;;;;;10.20;4.95;;;-8.60;99.90;;;;;;4955189;29;20035;-82
2023/12/13 07:11:28;;;;;;;16.25;5.00;;;-8.60;99.90;;;;;;4955693;29;20035;-83
2023/12/13 07:13:54;;;;;;;85.67;15.23;;;-8.70;99.90;;;;;;4955601;29;20062;-83
2023/12/13 07:16:20;;;;;;;10.98;3.88;;;-8.70;99.90;;;;;;4954215;28;20055;-82
2023/12/13 07:18:46;;;;;;;5.35;4.03;;;-8.70;99.90;;;;;;4948946;29;20051;-83
2023/12/13 07:21:12;;;;;;;11.75;3.28;;;-8.80;99.90;;;;;;4948150;28;20031;-82
2023/12/13 07:23:39;;;;;;;17.67;5.60;;;-8.80;99.90;;;;;;4954575;29;20095;-83
2023/12/13 07:26:06;;;;;;;6.95;1.77;;;-8.80;99.90;;;;;;4955237;29;20085;-83
2023/12/13 07:28:32;;;;;;;13.30;3.33;;;-8.80;99.90;;;;;;4953691;29;20109;-83
2023/12/13 07:31:03;;;;;;;9.20;3.65;;;-8.80;99.90;;;;;;4941120;29;20043;-84
2023/12/13 07:33:29;;;;;;;12.93;3.65;;;-8.80;99.90;;;;;;4960236;29;20035;-83
2023/12/13 07:35:54;;;;;;;9.95;4.68;;;-8.80;99.90;;;;;;4959714;29;20027;-83
2023/12/13 07:38:20;;;;;;;15.80;4.57;;;-8.80;99.90;;;;;;4955747;29;20026;-84
2023/12/13 07:40:47;;;;;;;15.50;7.10;;;-8.80;99.90;;;;;;4941687;29;20560;-82
2023/12/13 07:43:13;;;;;;;12.02;4.10;;;-8.70;99.90;;;;;;4958830;28;20026;-83
2023/12/13 07:45:43;;;;;;;8.45;4.65;;;-8.70;99.90;;;;;;4961100;28;20054;-83
2023/12/13 07:48:09;;;;;;;10.77;3.38;;;-8.80;99.90;;;;;;4946891;29;20015;-82
2023/12/13 07:50:34;;;;;;;6.43;2.75;;;-8.70;99.90;;;;;;4958663;29;20396;-84
2023/12/13 07:53:00;;;;;;;31.63;8.35;;;-8.70;99.90;;;;;;4957692;29;20019;-82
2023/12/13 07:55:28;;;;;;;19.38;5.00;;;-8.80;99.90;;;;;;4957509;29;20023;-84
2023/12/13 07:57:54;;;;;;;15.02;4.97;;;-8.80;99.90;;;;;;4940412;29;20038;-82
2023/12/13 08:00:19;;;;;;;17.13;4.18;;;-8.70;99.90;;;;;;4949517;29;20020;-82
2023/12/13 08:02:45;;;;;;;9.63;2.97;;;-8.70;99.90;;;;;;4945496;28;20043;-84
2023/12/13 08:05:13;;;;;;;19.40;3.53;;;-8.70;99.90;;;;;;4951416;29;20466;-84
2023/12/13 08:07:39;;;;;;;11.10;3.13;;;-8.70;99.90;;;;;;4950630;28;20034;-83
2023/12/13 08:10:07;;;;;;;15.45;4.82;;;-8.60;99.90;;;;;;4957367;29;20426;-82
2023/12/13 08:12:36;;;;;;;14.80;4.65;;;-8.60;99.90;;;;;;4960896;29;20035;-83
2023/12/13 08:15:05;;;;;;;10.30;4.03;;;-8.60;99.90;;;;;;4943862;29;20074;-81
2023/12/13 08:17:33;;;;;;;5.22;1.90;;;-8.50;99.90;;;;;;4960307;28;20031;-85
2023/12/13 08:20:00;;;;;;;12.50;3.35;;;-8.60;99.90;;;;;;4959514;28;20074;-86
2023/12/13 08:22:26;;;;;;;25.40;4.85;;;-8.50;99.90;;;;;;4959200;29;20106;-82
2023/12/13 08:24:52;;;;;;;15.15;4.00;;;-8.50;99.90;;;;;;4960135;29;20024;-85
2023/12/13 08:27:18;;;;;;;15.05;5.05;;;-8.50;99.90;;;;;;4964113;29;20054;-83
2023/12/13 08:29:44;;;;;;;6.78;1.58;;;-8.50;99.90;;;;;;4960712;29;20052;-82
2023/12/13 08:32:09;;;;;;;10.88;3.92;;;-8.50;99.80;;;;;;4943763;28;20019;-84
2023/12/13 08:34:35;;;;;;;18.63;4.90;;;-8.50;99.70;;;;;;4957126;29;20362;-83
2023/12/13 08:37:01;;;;;;;21.15;4.32;;;-8.40;99.60;;;;;;4956094;28;20476;-84
2023/12/13 08:39:27;;;;;;;14.25;3.80;;;-8.40;99.50;;;;;;4956314;29;20510;-82
2023/12/13 08:41:53;;;;;;;11.82;4.00;;;-8.40;99.50;;;;;;4958966;29;20039;-84
2023/12/13 08:44:21;;;;;;;14.20;3.67;;;-8.40;99.50;;;;;;4956377;29;20019;-83
2023/12/13 08:46:47;;;;;;;19.63;5.40;;;-8.40;99.50;;;;;;4955243;28;20034;-83
2023/12/13 08:49:13;;;;;;;37.70;4.80;;;-8.30;99.50;;;;;;4954588;29;20057;-83
2023/12/13 08:51:38;;;;;;;21.05;5.15;;;-8.30;99.60;;;;;;4956410;29;20470;-83
2023/12/13 08:54:04;;;;;;;10.68;4.45;;;-8.30;99.60;;;;;;4955601;29;20023;-82
2023/12/13 08:56:31;;;;;;;10.60;5.05;;;-8.30;99.60;;;;;;4955007;28;20032;-83
2023/12/13 08:58:58;;;;;;;26.07;5.27;;;-8.30;99.60;;;;;;4956662;29;20489;-82
2023/12/13 09:01:24;;;;;;;18.95;6.82;;;-8.30;99.60;;;;;;4957129;29;20098;-84
2023/12/13 09:03:53;;;;;;;11.87;4.07;;;-8.30;99.60;;;;;;4957798;29;20050;-82
2023/12/13 09:06:19;;;;;;;8.40;3.78;;;-8.20;99.60;;;;;;4957445;29;20034;-83
2023/12/13 09:08:44;;;;;;;14.27;3.92;;;-8.20;99.60;;;;;;4939304;29;20385;-83
2023/12/13 09:11:11;;;;;;;12.10;4.88;;;-8.20;99.60;;;;;;4955791;29;20050;-81
2023/12/13 09:13:37;;;;;;;19.90;7.57;;;-8.10;99.60;;;;;;4956510;28;20028;-82
2023/12/13 09:16:04;;;;;;;11.53;4.17;;;-8.10;99.60;;;;;;4938902;29;20031;-81
2023/12/13 09:18:31;;;;;;;21.05;4.03;;;-8.10;99.50;;;;;;4955571;29;20123;-82
2023/12/13 09:20:57;;;;;;;11.82;4.55;;;-8.10;99.40;;;;;;4956309;29;20034;-82
2023/12/13 09:23:24;;;;;;;15.52;4.85;;;-8.10;99.30;;;;;;4956020;29;20381;-82
2023/12/13 09:25:51;;;;;;;51.55;6.38;;;-8.10;99.30;;;;;;4947870;29;20151;-82
2023/12/13 09:28:17;;;;;;;16.60;5.97;;;-8.10;99.40;;;;;;4949123;29;20035;-83
2023/12/13 09:30:45;;;;;;;11.23;5.07;;;-8.10;99.40;;;;;;4956166;29;20038;-84
2023/12/13 09:33:11;;;;;;;21.63;7.70;;;-8.10;99.30;;;;;;4955973;29;20031;-82
2023/12/13 09:35:38;;;;;;;11.90;4.30;;;-8.10;99.30;;;;;;4951248;29;20490;-83
2023/12/13 09:38:04;;;;;;;12.25;4.50;;;-8.20;99.10;;;;;;4942514;28;20036;-83
2023/12/13 09:40:31;;;;;;;16.10;4.68;;;-8.10;99.30;;;;;;4960586;29;20062;-83
2023/12/13 09:42:57;;;;;;;9.80;4.28;;;-8.20;99.40;;;;;;4960411;29;20028;-82
2023/12/13 09:45:23;;;;;;;14.27;4.40;;;-8.20;99.40;;;;;;4955279;28;20425;-82
2023/12/13 09:47:51;;;;;;;18.33;6.00;;;-8.20;99.50;;;;;;4955741;28;20024;-83
2023/12/13 09:50:18;;;;;;;18.40;5.78;;;-8.10;99.60;;;;;;4939600;29;20409;-83
2023/12/13 09:52:44;;;;;;;16.23;5.22;;;-8.10;99.70;;;;;;4955594;29;20040;-82
2023/12/13 09:55:11;;;;;;;22.88;4.90;;;-8.10;99.70;;;;;;4956178;29;20133;-82
2023/12/13 09:57:37;;;;;;;25.30;5.93;;;-8.10;99.80;;;;;;4938880;29;20150;-84
2023/12/13 10:00:05;;;;;;;13.45;4.00;;;-8.10;99.80;;;;;;4956572;28;20058;-84
2023/12/13 10:02:32;;;;;;;14.95;5.82;;;-8.10;99.80;;;;;;4955538;28;20031;-85
2023/12/13 10:05:01;;;;;;;17.27;6.20;;;-8.20;99.80;;;;;;4957230;28;20408;-83
2023/12/13 10:07:30;;;;;;;18.27;6.38;;;-8.20;99.80;;;;;;4955455;28;20110;-83
2023/12/13 10:09:56;;;;;;;25.10;6.57;;;-8.20;99.70;;;;;;4956450;28;20098;-83
2023/12/13 10:12:22;;;;;;;25.83;5.93;;;-8.20;99.70;;;;;;4955802;29;20528;-83
2023/12/13 10:14:48;;;;;;;22.13;6.80;;;-8.20;99.80;;;;;;4953780;28;20022;-82
2023/12/13 10:17:14;;;;;;;11.20;4.78;;;-8.20;99.80;;;;;;4926028;29;20023;-82
2023/12/13 10:19:40;;;;;;;18.95;6.22;;;-8.20;99.70;;;;;;4940093;28;20023;-82
2023/12/13 10:22:06;;;;;;;15.65;3.60;;;-8.20;99.80;;;;;;4961701;28;20038;-82
2023/12/13 10:24:33;;;;;;;16.45;4.38;;;-8.20;99.90;;;;;;4962214;28;20028;-83
2023/12/13 10:26:59;;;;;;;22.77;6.50;;;-8.20;99.90;;;;;;4958363;28;20023;-82
2023/12/13 10:29:25;;;;;;;29.53;9.03;;;-8.10;99.90;;;;;;4957070;28;20023;-83
2023/12/13 10:31:51;;;;;;;17.15;6.57;;;-8.20;99.90;;;;;;4954264;28;20181;-83
2023/12/13 10:34:17;;;;;;;14.95;6.82;;;-8.10;99.90;;;;;;4954764;28;20031;-82
2023/12/13 10:36:43;;;;;;;21.02;5.10;;;-8.10;99.80;;;;;;4956007;28;20038;-83
2023/12/13 10:39:13;;;;;;;16.85;6.50;;;-8.10;99.70;;;;;;4954575;28;20465;-83
2023/12/13 10:41:44;;;;;;;14.35;5.30;;;-8.00;99.80;;;;;;4954522;29;20409;-83
2023/12/13 10:44:15;;;;;;;38.13;11.40;;;-8.00;99.60;;;;;;4954092;28;20106;-83
2023/12/13 10:46:46;;;;;;;17.15;5.95;;;-8.00;99.60;;;;;;4937527;29;20052;-83
2023/12/13 10:49:16;;;;;;;15.15;4.85;;;-8.00;99.50;;;;;;4953202;29;20488;-81
2023/12/13 10:51:43;;;;;;;18.25;5.13;;;-8.00;99.60;;;;;;4955231;29;20495;-84
2023/12/13 10:54:12;;;;;;;26.02;5.95;;;-8.00;99.60;;;;;;4955441;29;20099;-84
2023/12/13 10:56:39;;;;;;;14.02;5.40;;;-8.00;99.60;;;;;;4954159;29;20126;-84
2023/12/13 10:59:07;;;;;;;18.83;7.32;;;-8.00;99.80;;;;;;4955486;29;20521;-82
2023/12/13 11:01:34;;;;;;;20.05;5.80;;;-7.90;99.60;;;;;;4949482;29;20394;-83
2023/12/13 11:04:08;;;;;;;23.33;7.20;;;-8.00;99.50;;;;;;4928864;29;20059;-83
2023/12/13 11:06:37;;;;;;;24.05;7.00;;;-7.90;99.60;;;;;;4940468;29;20023;-83
2023/12/13 11:09:13;;;;;;;21.05;7.10;;;-8.00;99.40;;;;;;4959001;29;20031;-82
2023/12/13 11:11:41;;;;;;;12.55;5.38;;;-8.00;99.50;;;;;;4956348;29;20444;-82
2023/12/13 11:14:07;;;;;;;26.58;5.88;;;-8.00;99.60;;;;;;4930539;29;20119;-82
2023/12/13 11:16:42;;;;;;;23.42;5.57;;;-7.90;99.60;;;;;;4936777;29;20173;-82
2023/12/13 11:19:12;;;;;;;15.95;5.78;;;-7.90;99.60;;;;;;4960707;28;20034;-83
2023/12/13 11:21:40;;;;;;;16.88;4.78;;;-8.00;99.50;;;;;;4929152;29;20065;-84
2023/12/13 11:24:16;;;;;;;17.55;5.25;;;-8.00;99.40;;;;;;4960476;29;20019;-83
2023/12/13 11:26:50;;;;;;;30.38;5.03;;;-8.00;99.50;;;;;;4955436;29;20074;-84
2023/12/13 11:29:20;;;;;;;27.77;9.35;;;-8.00;99.50;;;;;;4955526;28;20101;-82
2023/12/13 11:31:54;;;;;;;15.50;6.65;;;-8.00;99.30;;;;;;4937409;29;20512;-83
2023/12/13 11:34:32;;;;;;;17.40;6.07;;;-8.00;99.20;;;;;;4943078;28;20020;-83
2023/12/13 11:37:06;;;;;;;23.02;6.93;;;-8.10;99.20;;;;;;4953997;29;20034;-83
2023/12/13 11:39:36;;;;;;;20.50;5.68;;;-8.00;99.20;;;;;;4953954;29;20038;-82
2023/12/13 11:42:04;;;;;;;18.45;5.68;;;-8.00;99.10;;;;;;4953633;28;20094;-82
2023/12/13 11:44:31;;;;;;;15.07;4.85;;;-8.10;99.10;;;;;;4952943;29;20097;-83
2023/12/13 11:47:00;;;;;;;18.50;5.40;;;-8.10;99.10;;;;;;4937361;29;20047;-82
2023/12/13 11:49:26;;;;;;;25.10;5.63;;;-8.10;99.10;;;;;;4936481;29;20091;-83
2023/12/13 11:51:53;;;;;;;15.85;5.20;;;-8.10;99.20;;;;;;4945889;29;20036;-81
2023/12/13 11:54:19;;;;;;;19.00;5.38;;;-8.20;99.30;;;;;;4932978;29;20023;-83
2023/12/13 11:56:45;;;;;;;19.02;5.22;;;-8.20;99.40;;;;;;4931222;29;20103;-84
2023/12/13 11:59:12;;;;;;;23.88;5.68;;;-8.20;99.40;;;;;;4946986;29;20031;-82
2023/12/13 12:01:38;;;;;;;27.17;7.37;;;-8.30;99.40;;;;;;4953213;28;20078;-83
2023/12/13 12:04:04;;;;;;;19.02;5.18;;;-8.30;99.50;;;;;;4953608;29;20055;-83
2023/12/13 12:06:30;;;;;;;15.25;4.97;;;-8.30;99.60;;;;;;4953896;29;20026;-83
2023/12/13 12:09:00;;;;;;;27.98;4.53;;;-8.30;99.60;;;;;;4953907;29;20086;-83
2023/12/13 12:11:26;;;;;;;19.95;6.03;;;-8.30;99.70;;;;;;4958274;29;20035;-83
2023/12/13 12:13:55;;;;;;;19.85;5.72;;;-8.40;99.60;;;;;;4955836;29;20559;-83
2023/12/13 12:16:21;;;;;;;25.95;4.80;;;-8.40;99.60;;;;;;4953933;28;20042;-83
2023/12/13 12:18:47;;;;;;;14.33;4.27;;;-8.40;99.70;;;;;;4946655;29;20031;-84
2023/12/13 12:21:13;;;;;;;22.20;6.38;;;-8.40;99.80;;;;;;4919298;29;20086;-84
2023/12/13 12:23:40;;;;;;;26.77;4.75;;;-8.50;99.80;;;;;;4951509;29;20043;-83
2023/12/13 12:26:11;;;;;;;11.90;3.55;;;-8.50;99.80;;;;;;4953398;29;20035;-83
2023/12/13 12:28:41;;;;;;;17.30;4.22;;;-8.50;99.90;;;;;;4953496;29;20472;-83
2023/12/13 12:31:10;;;;;;;19.52;5.47;;;-8.60;99.90;;;;;;4938944;29;20139;-83
2023/12/13 12:33:36;;;;;;;15.10;5.55;;;-8.60;99.90;;;;;;4944394;28;20401;-83
2023/12/13 12:36:03;;;;;;;18.27;6.40;;;-8.60;99.70;;;;;;4949379;29;20059;-82
2023/12/13 12:38:29;;;;;;;22.83;6.28;;;-8.60;99.70;;;;;;4951798;28;20023;-83